createdAt,value
2019-01-23T00:02:28.074Z,50.57
2019-01-23T00:04:59.391Z,45.65
2019-01-23T00:07:29.247Z,52.27
2019-01-23T00:10:01.666Z,48.47
2019-01-23T00:12:33.364Z,45.52
2019-01-23T00:15:07.499Z,46.77
2019-01-23T00:17:41.726Z,42.90
2019-01-23T00:20:13.655Z,41.77
2019-01-23T00:22:46.134Z,49.13
2019-01-23T00:25:23.853Z,46.77
2019-01-23T00:28:00.707Z,45.50
2019-01-23T00:30:32.351Z,46.70
2019-01-23T00:33:04.024Z,46.23
2019-01-23T00:35:35.668Z,42.80
2019-01-23T00:38:10.175Z,47.10
2019-01-23T00:40:42.105Z,40.90
2019-01-23T00:43:19.820Z,48.60
2019-01-23T00:45:53.107Z,41.27
2019-01-23T00:48:24.793Z,53.30
2019-01-23T00:50:56.446Z,50.33
2019-01-23T00:53:28.998Z,38.13
2019-01-23T00:56:02.540Z,46.63
2019-01-23T00:58:36.675Z,45.87
2019-01-23T01:01:08.310Z,48.10
2019-01-23T01:03:40.172Z,42.57
2019-01-23T01:06:21.954Z,45.80
2019-01-23T01:09:00.349Z,45.67
2019-01-23T01:11:32.945Z,46.20
2019-01-23T01:14:04.641Z,51.67
2019-01-23T01:16:36.757Z,41.90
2019-01-23T01:19:08.379Z,48.70
2019-01-23T01:21:40.237Z,43.63
2019-01-23T01:24:13.964Z,42.87
2019-01-23T01:26:57.358Z,40.07
2019-01-23T01:29:29.222Z,41.10
2019-01-23T01:32:00.844Z,45.45
2019-01-23T01:34:32.464Z,49.18
2019-01-23T01:37:04.167Z,41.00
2019-01-23T01:39:35.799Z,39.90
2019-01-23T01:42:07.886Z,43.10
2019-01-23T01:44:43.753Z,40.80
2019-01-23T01:47:13.027Z,45.50
2019-01-23T01:49:44.883Z,42.20
2019-01-23T01:52:16.550Z,37.83
2019-01-23T01:54:48.183Z,45.67
2019-01-23T01:57:21.804Z,42.80
2019-01-23T01:59:55.988Z,35.07
2019-01-23T02:02:28.625Z,35.17
2019-01-23T02:05:00.794Z,35.27
2019-01-23T02:07:30.022Z,39.20
2019-01-23T02:10:01.697Z,37.77
2019-01-23T02:12:33.483Z,38.95
2019-01-23T02:15:06.990Z,38.03
2019-01-23T02:17:41.594Z,44.43
2019-01-23T02:20:23.070Z,38.83
2019-01-23T02:22:54.465Z,41.87
2019-01-23T02:25:26.096Z,36.53
2019-01-23T02:27:57.876Z,39.47
2019-01-23T02:30:29.532Z,34.73
2019-01-23T02:33:01.745Z,38.47
2019-01-23T02:38:01.259Z,35.23
2019-01-23T02:40:32.946Z,37.00
2019-01-23T02:43:04.695Z,41.17
2019-01-23T02:45:36.443Z,43.00
2019-01-23T02:48:08.194Z,40.58
2019-01-23T02:50:39.262Z,38.77
2019-01-23T02:53:08.542Z,36.87
2019-01-23T02:55:40.253Z,40.00
2019-01-23T02:58:11.899Z,45.13
2019-01-23T03:00:43.551Z,37.67
2019-01-23T03:03:15.209Z,39.97
2019-01-23T03:05:46.822Z,36.83
2019-01-23T03:08:18.533Z,41.57
2019-01-23T03:15:54.474Z,43.03
2019-01-23T03:18:26.163Z,45.15
2019-01-23T03:20:57.811Z,42.27
2019-01-23T03:23:32.842Z,35.07
2019-01-23T03:26:04.465Z,37.20
2019-01-23T03:28:36.137Z,39.78
2019-01-23T03:31:07.897Z,38.27
2019-01-23T03:33:39.519Z,39.90
2019-01-23T03:36:11.148Z,39.05
2019-01-23T03:38:42.769Z,35.30
2019-01-23T03:41:14.376Z,38.73
2019-01-23T03:43:46.032Z,39.83
2019-01-23T03:46:17.858Z,48.48
2019-01-23T03:48:49.568Z,41.50
2019-01-23T03:51:21.277Z,41.07
2019-01-23T03:53:52.911Z,42.57
2019-01-23T03:56:24.556Z,34.13
2019-01-23T03:58:56.264Z,40.73
2019-01-23T04:01:27.907Z,36.20
2019-01-23T04:03:59.774Z,40.77
2019-01-23T04:06:32.136Z,33.42
2019-01-23T04:09:04.956Z,42.70
2019-01-23T04:11:36.626Z,37.75
2019-01-23T04:14:08.240Z,38.20
2019-01-23T04:16:39.893Z,41.50
2019-01-23T04:19:11.610Z,42.65
2019-01-23T04:21:43.234Z,36.03
2019-01-23T04:24:14.890Z,36.10
2019-01-23T04:26:46.489Z,36.90
2019-01-23T04:29:19.807Z,36.60
2019-01-23T04:31:51.406Z,36.57
2019-01-23T04:34:23.229Z,40.53
2019-01-23T04:36:54.865Z,40.67
2019-01-23T04:39:26.539Z,37.10
2019-01-23T04:41:58.156Z,39.80
2019-01-23T04:44:29.797Z,35.83
2019-01-23T04:47:01.392Z,41.57
2019-01-23T04:49:34.894Z,42.65
2019-01-23T04:52:19.266Z,38.17
2019-01-23T04:54:50.913Z,37.57
2019-01-23T04:57:22.547Z,44.00
2019-01-23T04:59:54.156Z,35.93
2019-01-23T05:02:25.768Z,42.78
2019-01-23T05:10:00.550Z,38.87
2019-01-23T05:12:35.311Z,41.88
2019-01-23T05:15:08.967Z,43.70
2019-01-23T05:17:41.845Z,36.55
2019-01-23T05:20:22.245Z,38.80
2019-01-23T05:22:57.576Z,37.43
2019-01-23T05:25:29.245Z,41.83
2019-01-23T05:28:00.966Z,37.77
2019-01-23T05:30:32.561Z,38.37
2019-01-23T05:33:04.166Z,41.57
2019-01-23T05:35:36.190Z,38.10
2019-01-23T05:38:07.847Z,38.57
2019-01-23T05:40:39.874Z,43.65
2019-01-23T05:43:11.507Z,45.57
2019-01-23T05:45:43.185Z,42.97
2019-01-23T05:48:14.844Z,46.17
2019-01-23T05:50:46.895Z,36.17
2019-01-23T05:53:18.538Z,38.10
2019-01-23T05:55:50.191Z,41.93
2019-01-23T05:58:21.911Z,39.40
2019-01-23T06:00:53.588Z,41.93
2019-01-23T06:03:25.244Z,40.55
2019-01-23T06:05:58.151Z,41.07
2019-01-23T06:08:29.765Z,45.93
2019-01-23T06:11:01.433Z,46.70
2019-01-23T06:13:33.148Z,40.93
2019-01-23T06:16:04.776Z,42.80
2019-01-23T06:18:38.009Z,41.73
2019-01-23T06:21:09.670Z,40.53
2019-01-23T06:23:41.818Z,45.10
2019-01-23T06:26:13.670Z,44.83
2019-01-23T06:28:45.464Z,37.77
2019-01-23T06:31:17.123Z,43.33
2019-01-23T06:33:48.760Z,44.87
2019-01-23T06:36:20.359Z,41.27
2019-01-23T06:38:52.379Z,40.37
2019-01-23T06:41:24.142Z,41.97
2019-01-23T06:43:55.838Z,44.77
2019-01-23T06:46:27.421Z,41.67
2019-01-23T06:48:59.110Z,46.60
2019-01-23T06:51:30.756Z,48.33
2019-01-23T06:54:03.213Z,46.20
2019-01-23T06:56:34.917Z,42.80
2019-01-23T06:59:06.617Z,43.87
2019-01-23T07:01:38.368Z,39.13
2019-01-23T07:04:10.004Z,45.43
2019-01-23T07:06:42.531Z,43.58
2019-01-23T07:09:14.906Z,46.80
2019-01-23T07:11:46.676Z,47.00
2019-01-23T07:14:18.342Z,40.37
2019-01-23T07:16:49.980Z,46.57
2019-01-23T07:19:23.089Z,41.47
2019-01-23T07:21:54.748Z,46.27
2019-01-23T07:24:27.119Z,50.35
2019-01-23T07:26:58.735Z,47.80
2019-01-23T07:29:30.433Z,46.93
2019-01-23T07:32:02.016Z,44.30
2019-01-23T07:34:33.621Z,50.50
2019-01-23T07:37:05.266Z,52.97
2019-01-23T07:39:40.378Z,42.80
2019-01-23T07:42:12.042Z,46.40
2019-01-23T07:44:43.891Z,46.45
2019-01-23T07:47:15.486Z,39.43
2019-01-23T07:49:47.169Z,46.73
2019-01-23T07:52:18.782Z,43.47
2019-01-23T07:54:51.072Z,48.52
2019-01-23T07:57:22.740Z,38.77
2019-01-23T07:59:54.475Z,46.83
2019-01-23T08:02:26.126Z,44.37
2019-01-23T08:04:58.641Z,51.73
2019-01-23T08:07:30.292Z,43.80
2019-01-23T08:10:01.964Z,45.80
2019-01-23T08:12:34.260Z,40.93
2019-01-23T08:15:10.746Z,47.15
2019-01-23T08:17:42.467Z,45.00
2019-01-23T08:20:17.538Z,47.33
2019-01-23T08:22:49.189Z,42.73
2019-01-23T08:25:21.014Z,44.77
2019-01-23T08:27:53.296Z,43.00
2019-01-23T08:30:25.635Z,39.03
2019-01-23T08:32:57.402Z,39.53
2019-01-23T08:35:29.814Z,41.87
2019-01-23T08:38:01.536Z,38.50
2019-01-23T08:40:33.191Z,48.87
2019-01-23T08:43:05.877Z,47.10
2019-01-23T08:45:37.668Z,42.13
2019-01-23T08:48:09.559Z,43.47
2019-01-23T08:50:44.339Z,41.47
2019-01-23T08:53:15.999Z,45.50
2019-01-23T08:55:53.491Z,45.33
2019-01-23T08:58:21.110Z,41.97
2019-01-23T09:00:53.360Z,45.43
2019-01-23T09:03:25.093Z,44.80
2019-01-23T09:05:57.425Z,45.10
2019-01-23T09:08:29.103Z,42.60
2019-01-23T09:11:00.802Z,55.10
2019-01-23T09:13:32.584Z,45.88
2019-01-23T09:16:04.235Z,48.20
2019-01-23T09:18:36.513Z,52.10
2019-01-23T09:21:08.683Z,51.73
2019-01-23T09:23:40.909Z,53.80
2019-01-23T09:26:12.666Z,46.30
2019-01-23T09:28:44.306Z,51.40
2019-01-23T09:32:19.036Z,48.33
2019-01-23T09:35:45.106Z,49.83
2019-01-23T09:38:48.899Z,52.27
2019-01-23T09:42:09.886Z,51.03
2019-01-23T09:45:26.724Z,53.17
2019-01-23T09:48:27.049Z,52.00
2019-01-23T09:51:52.951Z,45.77
2019-01-23T09:54:26.052Z,50.60
2019-01-23T09:56:57.849Z,48.80
2019-01-23T09:59:29.531Z,49.23
2019-01-23T10:02:01.156Z,59.10
2019-01-23T10:04:33.013Z,44.77
2019-01-23T10:07:04.668Z,52.93
2019-01-23T10:09:36.773Z,57.63
2019-01-23T10:12:08.484Z,58.70
2019-01-23T10:14:45.155Z,46.33
2019-01-23T10:17:16.818Z,53.80
2019-01-23T10:19:48.517Z,55.17
2019-01-23T10:22:20.201Z,53.08
2019-01-23T10:24:51.850Z,58.50
2019-01-23T10:27:24.360Z,51.53
2019-01-23T10:29:56.073Z,48.30
2019-01-23T10:32:28.234Z,51.30
2019-01-23T10:34:59.870Z,47.77
2019-01-23T10:37:32.810Z,50.60
2019-01-23T10:40:06.546Z,55.37
2019-01-23T10:42:38.591Z,45.17
2019-01-23T10:45:12.536Z,46.20
2019-01-23T10:47:44.452Z,45.70
2019-01-23T10:50:16.539Z,51.20
2019-01-23T10:52:48.203Z,51.30
2019-01-23T10:55:19.831Z,53.60
2019-01-23T10:57:51.573Z,56.07
2019-01-23T11:00:23.613Z,46.73
2019-01-23T11:02:55.278Z,49.63
2019-01-23T11:05:27.431Z,60.77
2019-01-23T11:07:59.469Z,56.70
2019-01-23T11:10:31.226Z,45.97
2019-01-23T11:13:02.890Z,52.87
2019-01-23T11:15:35.569Z,50.43
2019-01-23T11:18:07.772Z,43.13
2019-01-23T11:20:39.438Z,51.73
2019-01-23T11:23:11.363Z,55.00
2019-01-23T11:25:43.061Z,46.50
2019-01-23T11:28:14.770Z,55.33
2019-01-23T11:30:46.473Z,51.10
2019-01-23T11:33:18.156Z,49.27
2019-01-23T11:35:50.514Z,49.93
2019-01-23T11:38:22.311Z,45.85
2019-01-23T11:40:54.026Z,45.17
2019-01-23T11:43:25.844Z,50.20
2019-01-23T11:45:57.643Z,49.10
2019-01-23T11:48:29.267Z,50.90
2019-01-23T11:51:00.971Z,52.20
2019-01-23T11:53:32.639Z,48.48
2019-01-23T11:56:05.111Z,47.20
2019-01-23T11:58:36.800Z,48.57
2019-01-23T12:01:08.464Z,42.97
2019-01-23T12:03:40.398Z,50.13
2019-01-23T12:06:19.176Z,60.63
2019-01-23T12:08:50.871Z,46.13
2019-01-23T12:11:22.968Z,56.80
2019-01-23T12:13:54.713Z,43.43
2019-01-23T12:16:26.594Z,50.17
2019-01-23T12:18:58.742Z,53.13
2019-01-23T12:21:30.446Z,47.70
2019-01-23T12:24:02.069Z,51.30
2019-01-23T12:26:34.137Z,41.92
2019-01-23T12:29:05.951Z,48.33
2019-01-23T12:31:37.695Z,43.23
2019-01-23T12:34:09.469Z,44.63
2019-01-23T12:36:41.458Z,41.83
2019-01-23T12:39:13.319Z,41.10
2019-01-23T12:41:45.841Z,54.23
2019-01-23T12:44:17.464Z,47.93
2019-01-23T12:46:49.126Z,48.47
2019-01-23T12:49:20.794Z,46.27
2019-01-23T12:51:51.404Z,47.70
2019-01-23T12:54:20.638Z,44.97
2019-01-23T12:56:52.380Z,53.75
2019-01-23T12:59:24.140Z,40.70
2019-01-23T13:01:55.987Z,44.80
2019-01-23T13:04:27.809Z,56.77
2019-01-23T13:07:00.018Z,42.20
2019-01-23T13:09:31.667Z,45.03
2019-01-23T13:12:03.654Z,45.10
2019-01-23T13:14:35.520Z,41.97
2019-01-23T13:17:07.242Z,41.02
2019-01-23T13:19:39.037Z,39.20
2019-01-23T13:22:10.973Z,37.60
2019-01-23T13:24:42.761Z,46.43
2019-01-23T13:27:14.472Z,51.33
2019-01-23T13:29:46.304Z,40.50
2019-01-23T13:32:17.934Z,47.67
2019-01-23T13:34:50.874Z,47.13
2019-01-23T13:37:22.763Z,43.87
2019-01-23T13:39:54.429Z,47.73
2019-01-23T13:42:26.055Z,47.97
2019-01-23T13:44:57.861Z,45.80
2019-01-23T13:47:29.480Z,40.80
2019-01-23T13:50:01.113Z,39.53
2019-01-23T13:52:32.893Z,52.70
2019-01-23T13:55:05.665Z,45.13
2019-01-23T13:57:37.302Z,44.67
2019-01-23T14:00:16.070Z,46.43
2019-01-23T14:02:47.687Z,52.50
2019-01-23T14:05:18.542Z,47.25
2019-01-23T14:07:47.804Z,45.63
2019-01-23T14:10:21.910Z,52.40
2019-01-23T14:12:53.606Z,47.50
2019-01-23T14:15:29.860Z,51.73
2019-01-23T14:18:02.696Z,51.73
2019-01-23T14:20:34.477Z,49.57
2019-01-23T14:23:06.528Z,56.33
2019-01-23T14:25:38.275Z,51.17
2019-01-23T14:28:10.358Z,53.52
2019-01-23T14:30:45.463Z,56.73
2019-01-23T14:33:17.290Z,56.15
2019-01-23T14:35:50.359Z,58.90
2019-01-23T14:38:22.015Z,56.60
2019-01-23T14:40:53.688Z,61.77
2019-01-23T14:43:25.335Z,61.83
2019-01-23T14:45:57.125Z,67.13
2019-01-23T14:48:29.203Z,57.10
2019-01-23T14:51:01.004Z,53.55
2019-01-23T14:53:32.758Z,59.83
2019-01-23T14:56:04.583Z,57.60
2019-01-23T14:58:36.610Z,65.10
2019-01-23T15:01:08.322Z,60.30
2019-01-23T15:03:40.014Z,63.17
2019-01-23T15:06:11.858Z,61.00
2019-01-23T15:08:43.918Z,60.67
2019-01-23T15:11:16.112Z,56.67
2019-01-23T15:13:49.468Z,54.20
2019-01-23T15:16:21.111Z,60.00
2019-01-23T15:18:52.861Z,57.50
2019-01-23T15:21:24.711Z,59.73
2019-01-23T15:23:56.688Z,60.48
2019-01-23T15:26:28.411Z,62.30
2019-01-23T15:29:00.142Z,62.37
2019-01-23T15:31:31.954Z,53.00
2019-01-23T15:34:04.927Z,58.73
2019-01-23T15:36:36.719Z,56.63
2019-01-23T15:39:10.130Z,55.00
2019-01-23T15:41:42.150Z,56.47
2019-01-23T15:44:14.993Z,58.90
2019-01-23T15:46:46.632Z,63.77
2019-01-23T15:49:18.646Z,55.93
2019-01-23T15:51:50.297Z,58.17
2019-01-23T15:54:22.244Z,59.13
2019-01-23T15:56:54.093Z,49.27
2019-01-23T15:59:25.852Z,54.33
2019-01-23T16:01:57.580Z,47.90
2019-01-23T16:04:29.518Z,56.25
2019-01-23T16:07:01.492Z,55.95
2019-01-23T16:09:33.494Z,51.00
2019-01-23T16:12:05.536Z,60.05
2019-01-23T16:14:37.306Z,56.02
2019-01-23T16:17:10.056Z,57.07
2019-01-23T16:19:41.733Z,53.40
2019-01-23T16:22:13.518Z,54.87
2019-01-23T16:24:45.321Z,58.15
2019-01-23T16:27:17.242Z,65.90
2019-01-23T16:29:49.170Z,68.67
2019-01-23T16:32:31.209Z,54.23
2019-01-23T16:34:57.752Z,55.80
2019-01-23T16:37:29.732Z,55.50
2019-01-23T16:40:01.589Z,60.47
2019-01-23T16:42:33.487Z,56.85
2019-01-23T16:45:06.845Z,56.80
2019-01-23T16:47:38.626Z,71.57
2019-01-23T16:50:18.011Z,57.03
2019-01-23T16:52:50.124Z,55.53
2019-01-23T16:55:21.857Z,66.57
2019-01-23T16:57:54.225Z,70.73
2019-01-23T17:00:27.307Z,71.63
2019-01-23T17:02:59.633Z,81.97
2019-01-23T17:05:33.601Z,63.70
2019-01-23T17:08:08.555Z,64.47
2019-01-23T17:10:40.460Z,65.70
2019-01-23T17:13:12.554Z,65.30
2019-01-23T17:15:44.377Z,62.57
2019-01-23T17:18:16.401Z,56.87
2019-01-23T17:20:50.143Z,71.47
2019-01-23T17:23:21.850Z,55.93
2019-01-23T17:25:53.765Z,61.73
2019-01-23T17:28:25.678Z,57.20
2019-01-23T17:30:57.612Z,189.87
2019-01-23T17:33:34.785Z,107.93
2019-01-23T17:36:06.507Z,80.70
2019-01-23T17:38:38.319Z,60.00
2019-01-23T17:41:10.076Z,60.00
2019-01-23T17:43:42.201Z,64.40
2019-01-23T17:46:13.987Z,57.73
2019-01-23T17:48:45.859Z,62.60
2019-01-23T17:51:18.000Z,58.37
2019-01-23T17:53:49.726Z,55.70
2019-01-23T17:56:21.551Z,63.00
2019-01-23T17:58:53.670Z,62.47
2019-01-23T18:01:25.578Z,58.42
2019-01-23T18:03:57.525Z,62.67
2019-01-23T18:06:29.502Z,70.72
2019-01-23T18:09:01.248Z,67.57
2019-01-23T18:11:33.103Z,63.47
2019-01-23T18:14:05.212Z,55.00
2019-01-23T18:16:36.937Z,58.70
2019-01-23T18:19:08.870Z,56.13
2019-01-23T18:21:40.680Z,57.50
2019-01-23T18:24:12.472Z,61.10
2019-01-23T18:26:44.293Z,59.47
2019-01-23T18:29:16.311Z,59.70
2019-01-23T18:32:03.127Z,59.30
2019-01-23T18:35:31.042Z,66.43
2019-01-23T18:39:01.973Z,65.10
2019-01-23T18:42:20.059Z,58.20
2019-01-23T18:46:13.015Z,67.60
2019-01-23T18:49:47.435Z,67.20
2019-01-23T18:52:19.473Z,54.30
2019-01-23T18:54:51.439Z,57.70
2019-01-23T18:57:26.735Z,67.63
2019-01-23T18:59:59.248Z,66.67
2019-01-23T19:02:31.416Z,57.90
2019-01-23T19:05:03.215Z,66.63
2019-01-23T19:07:35.315Z,59.03
2019-01-23T19:10:11.344Z,66.20
2019-01-23T19:12:43.087Z,69.20
2019-01-23T19:15:17.531Z,80.05
2019-01-23T19:17:49.471Z,63.37
2019-01-23T19:20:22.359Z,53.47
2019-01-23T19:22:54.404Z,59.83
2019-01-23T19:25:26.219Z,63.87
2019-01-23T19:27:57.951Z,61.87
2019-01-23T19:30:29.667Z,58.47
2019-01-23T19:33:01.726Z,77.33
2019-01-23T19:35:33.465Z,58.00
2019-01-23T19:38:09.539Z,59.40
2019-01-23T19:40:49.092Z,65.83
2019-01-23T19:43:21.122Z,57.50
2019-01-23T19:45:52.881Z,60.43
2019-01-23T19:48:28.735Z,62.90
2019-01-23T19:51:05.798Z,53.87
2019-01-23T19:53:46.085Z,65.40
2019-01-23T19:56:25.771Z,49.97
2019-01-23T19:58:57.504Z,49.07
2019-01-23T20:01:29.845Z,52.00
2019-01-23T20:04:08.083Z,60.70
2019-01-23T20:06:43.132Z,53.07
2019-01-23T20:09:18.062Z,54.93
2019-01-23T20:11:50.869Z,47.93
2019-01-23T20:14:22.689Z,52.63
2019-01-23T20:16:54.497Z,53.10
2019-01-23T20:19:26.268Z,50.70
2019-01-23T20:21:58.077Z,61.73
2019-01-23T20:24:30.168Z,52.90
2019-01-23T20:27:02.270Z,55.40
2019-01-23T20:29:34.359Z,51.20
2019-01-23T20:32:06.204Z,52.50
2019-01-23T20:34:49.185Z,51.37
2019-01-23T20:37:25.739Z,48.90
2019-01-23T20:39:57.533Z,51.73
2019-01-23T20:42:31.696Z,53.40
2019-01-23T20:45:03.701Z,51.40
2019-01-23T20:47:35.460Z,56.13
2019-01-23T20:50:12.485Z,56.67
2019-01-23T20:52:44.150Z,49.43
2019-01-23T20:55:17.585Z,54.27
2019-01-23T20:57:49.335Z,46.00
2019-01-23T21:00:25.120Z,54.70
2019-01-23T21:02:56.916Z,57.17
2019-01-23T21:05:29.682Z,44.97
2019-01-23T21:08:12.165Z,51.37
2019-01-23T21:15:52.958Z,45.60
2019-01-23T21:18:24.732Z,50.83
2019-01-23T21:20:56.558Z,49.23
2019-01-23T21:23:28.414Z,48.73
2019-01-23T21:26:00.297Z,43.03
2019-01-23T21:28:32.034Z,50.43
2019-01-23T21:31:03.773Z,50.70
2019-01-23T21:33:42.096Z,49.00
2019-01-23T21:36:12.245Z,41.70
2019-01-23T21:38:44.181Z,44.27
2019-01-23T21:41:16.644Z,48.68
2019-01-23T21:43:48.617Z,46.47
2019-01-23T21:46:20.367Z,42.95
2019-01-23T21:48:52.124Z,54.07
2019-01-23T21:51:25.183Z,51.73
2019-01-23T21:53:57.319Z,54.80
2019-01-23T21:56:29.170Z,60.67
2019-01-23T21:59:00.944Z,56.57
2019-01-23T22:01:32.836Z,61.25
2019-01-23T22:04:04.934Z,53.30
2019-01-23T22:06:39.360Z,72.90
2019-01-23T22:09:11.171Z,58.05
2019-01-23T22:11:43.739Z,44.53
2019-01-23T22:14:16.186Z,55.28
2019-01-23T22:16:48.012Z,58.37
2019-01-23T22:19:19.880Z,51.97
2019-01-23T22:21:53.497Z,47.50
2019-01-23T22:24:25.351Z,49.13
2019-01-23T22:26:58.743Z,54.33
2019-01-23T22:29:30.666Z,49.53
2019-01-23T22:32:02.368Z,46.27
2019-01-23T22:34:34.101Z,49.27
2019-01-23T22:37:05.990Z,56.47
2019-01-23T22:39:39.391Z,51.73
2019-01-23T22:42:11.160Z,45.13
2019-01-23T22:44:43.932Z,40.63
2019-01-23T22:47:16.298Z,49.48
2019-01-23T22:49:48.478Z,47.30
2019-01-23T22:52:20.860Z,50.55
2019-01-23T22:54:53.434Z,46.27
2019-01-23T22:57:25.115Z,45.80
2019-01-23T22:59:57.181Z,40.87
2019-01-23T23:02:29.375Z,41.40
2019-01-23T23:05:01.044Z,48.00
2019-01-23T23:07:33.878Z,46.20
2019-01-23T23:10:07.493Z,55.60
2019-01-23T23:12:41.448Z,44.45
2019-01-23T23:15:13.728Z,46.70
2019-01-23T23:17:45.646Z,44.93
2019-01-23T23:20:17.633Z,49.57
2019-01-23T23:22:49.599Z,54.80
2019-01-23T23:25:21.278Z,49.43
2019-01-23T23:27:53.398Z,57.17
2019-01-23T23:30:26.466Z,48.60
2019-01-23T23:32:58.695Z,51.87
2019-01-23T23:35:30.380Z,54.58
2019-01-23T23:38:02.068Z,63.50
2019-01-23T23:40:33.725Z,52.43
2019-01-23T23:43:07.802Z,52.90
2019-01-23T23:45:40.229Z,44.77
2019-01-23T23:48:13.484Z,40.20
2019-01-23T23:50:45.160Z,53.50
2019-01-23T23:53:16.943Z,46.00
2019-01-23T23:55:48.880Z,49.77
2019-01-23T23:58:20.630Z,50.08
